sensor_id;sensor_type;location;lat;lon;timestamp;temperature;humidity
4451;DHT22;2238;50.180;9.230;2022-10-01T00:00:10;11.10;99.90
4451;DHT22;2238;50.180;9.230;2022-10-01T00:06:18;11.00;99.90
4451;DHT22;2238;50.180;9.230;2022-10-01T00:09:19;11.00;99.90
4451;DHT22;2238;50.180;9.230;2022-10-01T00:12:20;11.00;99.90
4451;DHT22;2238;50.180;9.230;2022-10-01T00:18:22;11.00;99.90
4451;DHT22;2238;50.180;9.230;2022-10-01T00:21:26;11.10;99.90
4451;DHT22;2238;50.180;9.230;2022-10-01T00:24:27;11.00;99.90
4451;DHT22;2238;50.180;9.230;2022-10-01T00:27:28;10.90;99.90
4451;DHT22;2238;50.180;9.230;2022-10-01T00:33:30;10.90;99.90
4451;DHT22;2238;50.180;9.230;2022-10-01T00:48:46;11.50;99.90
4451;DHT22;2238;50.180;9.230;2022-10-01T00:51:51;11.50;99.90
4451;DHT22;2238;50.180;9.230;2022-10-01T00:55:12;11.50;99.90
4451;DHT22;2238;50.180;9.230;2022-10-01T00:58:14;11.50;99.90
4451;DHT22;2238;50.180;9.230;2022-10-01T01:01:15;11.50;99.90
4451;DHT22;2238;50.180;9.230;2022-10-01T01:04:16;11.50;99.90
4451;DHT22;2238;50.180;9.230;2022-10-01T01:07:17;11.50;99.90
4451;DHT22;2238;50.180;9.230;2022-10-01T01:10:30;11.50;99.90
4451;DHT22;2238;50.180;9.230;2022-10-01T01:17:06;11.30;99.90
4451;DHT22;2238;50.180;9.230;2022-10-01T01:27:45;9.80;99.90
4451;DHT22;2238;50.180;9.230;2022-10-01T01:30:50;11.50;99.90
4451;DHT22;2238;50.180;9.230;2022-10-01T01:33:53;11.50;99.90
4451;DHT22;2238;50.180;9.230;2022-10-01T01:36:59;11.40;99.90
4451;DHT22;2238;50.180;9.230;2022-10-01T01:40:02;11.50;99.90
4451;DHT22;2238;50.180;9.230;2022-10-01T01:43:10;11.40;99.90
4451;DHT22;2238;50.180;9.230;2022-10-01T01:46:12;11.40;99.90
4451;DHT22;2238;50.180;9.230;2022-10-01T01:49:17;11.40;99.90
4451;DHT22;2238;50.180;9.230;2022-10-01T01:52:20;11.40;99.90
4451;DHT22;2238;50.180;9.230;2022-10-01T01:55:24;11.40;99.90
4451;DHT22;2238;50.180;9.230;2022-10-01T01:58:32;11.30;99.90
4451;DHT22;2238;50.180;9.230;2022-10-01T02:01:41;11.30;99.90
4451;DHT22;2238;50.180;9.230;2022-10-01T02:04:55;11.30;99.90
4451;DHT22;2238;50.180;9.230;2022-10-01T02:08:28;11.20;99.90
4451;DHT22;2238;50.180;9.230;2022-10-01T02:11:35;11.20;99.90
4451;DHT22;2238;50.180;9.230;2022-10-01T02:14:58;11.30;99.90
4451;DHT22;2238;50.180;9.230;2022-10-01T02:18:10;11.30;99.90
4451;DHT22;2238;50.180;9.230;2022-10-01T02:21:22;11.20;99.90
4451;DHT22;2238;50.180;9.230;2022-10-01T02:27:51;11.30;99.90
4451;DHT22;2238;50.180;9.230;2022-10-01T02:30:56;11.20;99.90
4451;DHT22;2238;50.180;9.230;2022-10-01T02:33:59;11.10;99.90
4451;DHT22;2238;50.180;9.230;2022-10-01T02:37:03;11.20;99.90
4451;DHT22;2238;50.180;9.230;2022-10-01T02:40:07;11.20;99.90
4451;DHT22;2238;50.180;9.230;2022-10-01T02:43:21;11.20;99.90
4451;DHT22;2238;50.180;9.230;2022-10-01T02:46:28;11.20;99.90
4451;DHT22;2238;50.180;9.230;2022-10-01T02:49:30;11.20;99.90
4451;DHT22;2238;50.180;9.230;2022-10-01T02:52:42;11.10;99.90
4451;DHT22;2238;50.180;9.230;2022-10-01T02:55:46;11.10;99.90
4451;DHT22;2238;50.180;9.230;2022-10-01T02:58:48;11.10;99.90
4451;DHT22;2238;50.180;9.230;2022-10-01T03:01:51;11.20;99.90
4451;DHT22;2238;50.180;9.230;2022-10-01T03:04:56;11.10;99.90
4451;DHT22;2238;50.180;9.230;2022-10-01T03:07:56;11.10;99.90
4451;DHT22;2238;50.180;9.230;2022-10-01T03:10:57;11.20;99.90
4451;DHT22;2238;50.180;9.230;2022-10-01T03:13:58;11.10;99.90
4451;DHT22;2238;50.180;9.230;2022-10-01T03:16:58;11.10;99.90
4451;DHT22;2238;50.180;9.230;2022-10-01T03:19:59;11.10;99.90
4451;DHT22;2238;50.180;9.230;2022-10-01T03:23:00;11.10;99.90
4451;DHT22;2238;50.180;9.230;2022-10-01T03:26:00;11.10;99.90
4451;DHT22;2238;50.180;9.230;2022-10-01T03:29:02;11.10;99.90
4451;DHT22;2238;50.180;9.230;2022-10-01T03:32:03;11.10;99.90
4451;DHT22;2238;50.180;9.230;2022-10-01T03:35:04;11.10;99.90
4451;DHT22;2238;50.180;9.230;2022-10-01T03:38:04;11.10;99.90
4451;DHT22;2238;50.180;9.230;2022-10-01T03:41:06;11.10;99.90
4451;DHT22;2238;50.180;9.230;2022-10-01T03:44:07;13.90;99.90
4451;DHT22;2238;50.180;9.230;2022-10-01T03:47:08;11.50;99.90
4451;DHT22;2238;50.180;9.230;2022-10-01T03:50:09;14.00;99.90
4451;DHT22;2238;50.180;9.230;2022-10-01T03:53:10;12.30;99.90
4451;DHT22;2238;50.180;9.230;2022-10-01T03:56:12;11.10;99.90
4451;DHT22;2238;50.180;9.230;2022-10-01T03:59:13;12.30;99.90
4451;DHT22;2238;50.180;9.230;2022-10-01T04:02:14;11.20;99.90
4451;DHT22;2238;50.180;9.230;2022-10-01T04:05:14;11.20;99.90
4451;DHT22;2238;50.180;9.230;2022-10-01T04:08:15;11.20;99.90
4451;DHT22;2238;50.180;9.230;2022-10-01T04:11:16;11.10;99.90
4451;DHT22;2238;50.180;9.230;2022-10-01T04:14:16;11.10;99.90
4451;DHT22;2238;50.180;9.230;2022-10-01T04:17:17;11.10;99.90
4451;DHT22;2238;50.180;9.230;2022-10-01T04:20:18;11.10;99.90
4451;DHT22;2238;50.180;9.230;2022-10-01T04:23:18;11.10;99.90
4451;DHT22;2238;50.180;9.230;2022-10-01T04:26:19;12.40;99.90
4451;DHT22;2238;50.180;9.230;2022-10-01T04:29:19;13.20;99.90
4451;DHT22;2238;50.180;9.230;2022-10-01T04:32:20;11.00;99.90
4451;DHT22;2238;50.180;9.230;2022-10-01T04:35:21;12.10;99.90
4451;DHT22;2238;50.180;9.230;2022-10-01T04:38:22;10.80;99.90
4451;DHT22;2238;50.180;9.230;2022-10-01T04:41:23;10.80;99.90
4451;DHT22;2238;50.180;9.230;2022-10-01T04:44:24;11.80;99.90
4451;DHT22;2238;50.180;9.230;2022-10-01T04:47:25;10.60;99.90
4451;DHT22;2238;50.180;9.230;2022-10-01T04:50:26;10.50;99.90
4451;DHT22;2238;50.180;9.230;2022-10-01T04:53:26;10.60;99.90
4451;DHT22;2238;50.180;9.230;2022-10-01T04:56:28;10.50;99.90
4451;DHT22;2238;50.180;9.230;2022-10-01T04:59:28;10.60;99.90
4451;DHT22;2238;50.180;9.230;2022-10-01T05:02:29;10.70;99.90
4451;DHT22;2238;50.180;9.230;2022-10-01T05:05:32;11.90;99.90
4451;DHT22;2238;50.180;9.230;2022-10-01T05:08:34;10.40;99.90
4451;DHT22;2238;50.180;9.230;2022-10-01T05:11:34;11.30;99.90
4451;DHT22;2238;50.180;9.230;2022-10-01T05:14:35;10.30;99.90
4451;DHT22;2238;50.180;9.230;2022-10-01T05:17:36;10.20;99.90
4451;DHT22;2238;50.180;9.230;2022-10-01T05:20:36;12.50;99.90
4451;DHT22;2238;50.180;9.230;2022-10-01T05:23:37;10.10;99.90
4451;DHT22;2238;50.180;9.230;2022-10-01T05:26:38;10.10;99.90
4451;DHT22;2238;50.180;9.230;2022-10-01T05:29:39;10.10;99.90
4451;DHT22;2238;50.180;9.230;2022-10-01T05:32:40;10.60;99.90
4451;DHT22;2238;50.180;9.230;2022-10-01T05:35:41;11.40;99.90
4451;DHT22;2238;50.180;9.230;2022-10-01T05:38:41;10.00;99.90
4451;DHT22;2238;50.180;9.230;2022-10-01T05:44:43;10.00;99.90
4451;DHT22;2238;50.180;9.230;2022-10-01T05:47:46;10.00;99.90
4451;DHT22;2238;50.180;9.230;2022-10-01T05:50:47;9.90;99.90
4451;DHT22;2238;50.180;9.230;2022-10-01T05:53:49;9.90;99.90
4451;DHT22;2238;50.180;9.230;2022-10-01T05:56:50;10.10;99.90
4451;DHT22;2238;50.180;9.230;2022-10-01T05:59:50;9.90;99.90
4451;DHT22;2238;50.180;9.230;2022-10-01T06:02:52;10.00;99.90
4451;DHT22;2238;50.180;9.230;2022-10-01T06:05:53;10.00;99.90
4451;DHT22;2238;50.180;9.230;2022-10-01T06:08:54;10.10;99.90
4451;DHT22;2238;50.180;9.230;2022-10-01T06:11:54;7.80;99.90
4451;DHT22;2238;50.180;9.230;2022-10-01T06:14:55;9.90;99.90
4451;DHT22;2238;50.180;9.230;2022-10-01T06:18:00;9.90;99.90
4451;DHT22;2238;50.180;9.230;2022-10-01T06:21:01;11.70;99.90
4451;DHT22;2238;50.180;9.230;2022-10-01T06:24:02;9.90;99.90
4451;DHT22;2238;50.180;9.230;2022-10-01T06:27:03;9.80;99.90
4451;DHT22;2238;50.180;9.230;2022-10-01T06:30:04;9.80;99.90
4451;DHT22;2238;50.180;9.230;2022-10-01T06:33:11;9.90;99.90
4451;DHT22;2238;50.180;9.230;2022-10-01T06:36:12;9.90;99.90
4451;DHT22;2238;50.180;9.230;2022-10-01T06:39:12;9.90;99.90
4451;DHT22;2238;50.180;9.230;2022-10-01T06:42:13;10.00;99.90
4451;DHT22;2238;50.180;9.230;2022-10-01T06:45:15;9.90;99.90
4451;DHT22;2238;50.180;9.230;2022-10-01T06:48:18;12.80;99.90
4451;DHT22;2238;50.180;9.230;2022-10-01T06:51:20;9.90;99.90
4451;DHT22;2238;50.180;9.230;2022-10-01T06:54:40;9.90;99.90
4451;DHT22;2238;50.180;9.230;2022-10-01T06:57:41;9.90;99.90
4451;DHT22;2238;50.180;9.230;2022-10-01T07:00:42;9.90;99.90
4451;DHT22;2238;50.180;9.230;2022-10-01T07:03:43;10.00;99.90
4451;DHT22;2238;50.180;9.230;2022-10-01T07:06:43;10.00;99.90
4451;DHT22;2238;50.180;9.230;2022-10-01T07:09:44;11.20;99.90
4451;DHT22;2238;50.180;9.230;2022-10-01T07:12:44;10.10;99.90
4451;DHT22;2238;50.180;9.230;2022-10-01T07:15:48;10.00;99.90
4451;DHT22;2238;50.180;9.230;2022-10-01T07:18:48;10.00;99.90
4451;DHT22;2238;50.180;9.230;2022-10-01T07:21:49;10.10;99.90
4451;DHT22;2238;50.180;9.230;2022-10-01T07:24:50;10.00;99.90
4451;DHT22;2238;50.180;9.230;2022-10-01T07:27:59;10.00;99.90
4451;DHT22;2238;50.180;9.230;2022-10-01T07:31:01;10.90;99.90
4451;DHT22;2238;50.180;9.230;2022-10-01T07:34:02;10.10;99.90
4451;DHT22;2238;50.180;9.230;2022-10-01T07:37:03;10.10;99.90
4451;DHT22;2238;50.180;9.230;2022-10-01T07:40:04;10.60;99.90
4451;DHT22;2238;50.180;9.230;2022-10-01T07:43:05;10.20;99.90
4451;DHT22;2238;50.180;9.230;2022-10-01T07:46:06;10.10;99.90
4451;DHT22;2238;50.180;9.230;2022-10-01T07:49:08;12.90;99.90
4451;DHT22;2238;50.180;9.230;2022-10-01T07:52:10;10.20;99.90
4451;DHT22;2238;50.180;9.230;2022-10-01T07:55:11;10.20;99.90
4451;DHT22;2238;50.180;9.230;2022-10-01T07:58:13;10.10;99.90
4451;DHT22;2238;50.180;9.230;2022-10-01T08:01:14;11.40;99.90
4451;DHT22;2238;50.180;9.230;2022-10-01T08:04:15;10.20;99.90
4451;DHT22;2238;50.180;9.230;2022-10-01T08:07:34;10.20;99.90
4451;DHT22;2238;50.180;9.230;2022-10-01T08:10:36;10.30;99.90
4451;DHT22;2238;50.180;9.230;2022-10-01T08:13:37;10.30;99.90
4451;DHT22;2238;50.180;9.230;2022-10-01T08:16:38;10.20;99.90
4451;DHT22;2238;50.180;9.230;2022-10-01T08:19:40;10.20;99.90
4451;DHT22;2238;50.180;9.230;2022-10-01T08:22:40;11.30;99.90
4451;DHT22;2238;50.180;9.230;2022-10-01T08:25:42;10.30;99.90
4451;DHT22;2238;50.180;9.230;2022-10-01T08:28:43;10.20;99.90
4451;DHT22;2238;50.180;9.230;2022-10-01T08:31:44;10.20;99.90
4451;DHT22;2238;50.180;9.230;2022-10-01T08:34:44;10.20;99.90
4451;DHT22;2238;50.180;9.230;2022-10-01T08:37:46;12.20;99.90
4451;DHT22;2238;50.180;9.230;2022-10-01T08:40:50;11.40;99.90
4451;DHT22;2238;50.180;9.230;2022-10-01T08:43:51;10.10;99.90
4451;DHT22;2238;50.180;9.230;2022-10-01T08:46:58;10.20;99.90
4451;DHT22;2238;50.180;9.230;2022-10-01T08:50:29;10.20;99.90
4451;DHT22;2238;50.180;9.230;2022-10-01T08:53:47;10.30;99.90
4451;DHT22;2238;50.180;9.230;2022-10-01T08:56:50;10.20;99.90
4451;DHT22;2238;50.180;9.230;2022-10-01T08:59:55;10.40;99.90
4451;DHT22;2238;50.180;9.230;2022-10-01T09:02:59;10.70;99.90
4451;DHT22;2238;50.180;9.230;2022-10-01T09:12:43;10.40;99.90
4451;DHT22;2238;50.180;9.230;2022-10-01T09:16:06;10.50;99.90
4451;DHT22;2238;50.180;9.230;2022-10-01T09:19:18;10.40;99.90
4451;DHT22;2238;50.180;9.230;2022-10-01T09:25:31;10.50;99.90
4451;DHT22;2238;50.180;9.230;2022-10-01T09:28:36;10.50;99.90
4451;DHT22;2238;50.180;9.230;2022-10-01T09:31:43;10.50;99.90
4451;DHT22;2238;50.180;9.230;2022-10-01T09:34:46;10.50;99.90
4451;DHT22;2238;50.180;9.230;2022-10-01T09:38:03;10.50;99.90
4451;DHT22;2238;50.180;9.230;2022-10-01T09:41:08;10.70;99.90
4451;DHT22;2238;50.180;9.230;2022-10-01T09:44:15;10.60;99.90
4451;DHT22;2238;50.180;9.230;2022-10-01T09:47:19;10.50;99.90
4451;DHT22;2238;50.180;9.230;2022-10-01T09:50:34;10.60;99.90
4451;DHT22;2238;50.180;9.230;2022-10-01T09:57:12;10.60;99.90
4451;DHT22;2238;50.180;9.230;2022-10-01T10:00:18;10.70;99.90
4451;DHT22;2238;50.180;9.230;2022-10-01T10:03:24;10.60;99.90
4451;DHT22;2238;50.180;9.230;2022-10-01T10:06:28;10.70;99.90
4451;DHT22;2238;50.180;9.230;2022-10-01T10:09:32;10.60;99.90
4451;DHT22;2238;50.180;9.230;2022-10-01T10:12:34;11.20;99.90
4451;DHT22;2238;50.180;9.230;2022-10-01T10:15:48;10.70;99.90
4451;DHT22;2238;50.180;9.230;2022-10-01T10:18:49;10.80;99.90
4451;DHT22;2238;50.180;9.230;2022-10-01T10:21:56;12.50;99.90
4451;DHT22;2238;50.180;9.230;2022-10-01T10:25:13;11.50;99.90
4451;DHT22;2238;50.180;9.230;2022-10-01T10:28:20;10.80;99.90
4451;DHT22;2238;50.180;9.230;2022-10-01T10:31:25;10.90;99.90
4451;DHT22;2238;50.180;9.230;2022-10-01T10:53:23;10.80;99.90
4451;DHT22;2238;50.180;9.230;2022-10-01T10:56:24;10.80;99.90
4451;DHT22;2238;50.180;9.230;2022-10-01T10:59:25;10.90;99.90
4451;DHT22;2238;50.180;9.230;2022-10-01T11:02:30;11.40;99.90
4451;DHT22;2238;50.180;9.230;2022-10-01T11:05:33;11.10;99.90
4451;DHT22;2238;50.180;9.230;2022-10-01T11:08:40;11.10;99.90
4451;DHT22;2238;50.180;9.230;2022-10-01T11:11:49;12.00;99.90
4451;DHT22;2238;50.180;9.230;2022-10-01T11:15:09;11.00;99.90
4451;DHT22;2238;50.180;9.230;2022-10-01T11:28:28;11.20;99.90
4451;DHT22;2238;50.180;9.230;2022-10-01T11:31:42;11.30;99.90
4451;DHT22;2238;50.180;9.230;2022-10-01T11:41:44;11.40;99.90
4451;DHT22;2238;50.180;9.230;2022-10-01T11:45:00;11.50;99.90
4451;DHT22;2238;50.180;9.230;2022-10-01T11:48:09;11.50;99.90
4451;DHT22;2238;50.180;9.230;2022-10-01T11:51:18;11.50;99.90
4451;DHT22;2238;50.180;9.230;2022-10-01T11:54:23;14.50;99.90
4451;DHT22;2238;50.180;9.230;2022-10-01T11:57:25;11.50;99.90
4451;DHT22;2238;50.180;9.230;2022-10-01T12:00:59;11.60;99.90
4451;DHT22;2238;50.180;9.230;2022-10-01T12:10:46;11.70;99.90
4451;DHT22;2238;50.180;9.230;2022-10-01T12:13:54;11.80;99.90
4451;DHT22;2238;50.180;9.230;2022-10-01T12:17:27;13.90;99.90
4451;DHT22;2238;50.180;9.230;2022-10-01T12:20:48;11.80;99.90
4451;DHT22;2238;50.180;9.230;2022-10-01T12:23:56;11.80;99.90
4451;DHT22;2238;50.180;9.230;2022-10-01T12:27:03;11.80;99.90
4451;DHT22;2238;50.180;9.230;2022-10-01T12:36:44;11.80;99.90
4451;DHT22;2238;50.180;9.230;2022-10-01T12:47:08;12.20;99.90
4451;DHT22;2238;50.180;9.230;2022-10-01T12:54:12;13.60;99.90
4451;DHT22;2238;50.180;9.230;2022-10-01T13:00:33;12.50;99.90
4451;DHT22;2238;50.180;9.230;2022-10-01T13:13:48;13.20;99.90
4451;DHT22;2238;50.180;9.230;2022-10-01T13:17:25;13.20;99.90
4451;DHT22;2238;50.180;9.230;2022-10-01T13:20:35;13.20;99.90
4451;DHT22;2238;50.180;9.230;2022-10-01T13:26:53;13.40;99.90
4451;DHT22;2238;50.180;9.230;2022-10-01T13:30:13;13.70;99.90
4451;DHT22;2238;50.180;9.230;2022-10-01T13:33:22;13.80;99.90
4451;DHT22;2238;50.180;9.230;2022-10-01T13:36:34;13.80;99.90
4451;DHT22;2238;50.180;9.230;2022-10-01T13:39:35;14.10;99.90
4451;DHT22;2238;50.180;9.230;2022-10-01T13:42:43;14.10;99.90
4451;DHT22;2238;50.180;9.230;2022-10-01T13:45:46;14.00;99.90
4451;DHT22;2238;50.180;9.230;2022-10-01T13:48:48;14.70;99.90
4451;DHT22;2238;50.180;9.230;2022-10-01T13:51:50;15.20;99.90
4451;DHT22;2238;50.180;9.230;2022-10-01T13:54:54;14.00;99.90
4451;DHT22;2238;50.180;9.230;2022-10-01T13:58:06;14.00;99.90
4451;DHT22;2238;50.180;9.230;2022-10-01T14:04:36;15.70;99.90
4451;DHT22;2238;50.180;9.230;2022-10-01T14:07:38;14.20;99.90
4451;DHT22;2238;50.180;9.230;2022-10-01T14:10:45;14.30;99.90
4451;DHT22;2238;50.180;9.230;2022-10-01T14:17:40;14.20;99.90
4451;DHT22;2238;50.180;9.230;2022-10-01T14:24:31;14.20;99.90
4451;DHT22;2238;50.180;9.230;2022-10-01T14:34:17;14.30;99.90
4451;DHT22;2238;50.180;9.230;2022-10-01T14:37:22;14.40;99.90
4451;DHT22;2238;50.180;9.230;2022-10-01T14:40:23;15.00;99.90
4451;DHT22;2238;50.180;9.230;2022-10-01T14:43:26;14.50;99.90
4451;DHT22;2238;50.180;9.230;2022-10-01T14:46:27;16.20;99.90
4451;DHT22;2238;50.180;9.230;2022-10-01T14:49:30;14.30;99.90
4451;DHT22;2238;50.180;9.230;2022-10-01T14:52:31;14.30;99.90
4451;DHT22;2238;50.180;9.230;2022-10-01T14:55:33;14.20;99.90
4451;DHT22;2238;50.180;9.230;2022-10-01T14:58:38;14.40;99.90
4451;DHT22;2238;50.180;9.230;2022-10-01T15:01:40;14.40;99.90
4451;DHT22;2238;50.180;9.230;2022-10-01T15:04:49;14.40;99.90
4451;DHT22;2238;50.180;9.230;2022-10-01T15:07:50;14.40;99.90
4451;DHT22;2238;50.180;9.230;2022-10-01T15:10:53;14.40;99.90
4451;DHT22;2238;50.180;9.230;2022-10-01T15:14:14;14.40;99.90
4451;DHT22;2238;50.180;9.230;2022-10-01T15:17:23;14.50;99.90
4451;DHT22;2238;50.180;9.230;2022-10-01T15:20:26;14.40;99.90
4451;DHT22;2238;50.180;9.230;2022-10-01T15:23:28;16.70;99.90
4451;DHT22;2238;50.180;9.230;2022-10-01T15:26:30;14.40;99.90
4451;DHT22;2238;50.180;9.230;2022-10-01T15:29:32;14.30;99.90
4451;DHT22;2238;50.180;9.230;2022-10-01T15:32:35;14.30;99.90
4451;DHT22;2238;50.180;9.230;2022-10-01T15:35:36;14.30;99.90
4451;DHT22;2238;50.180;9.230;2022-10-01T15:38:37;15.10;99.90
4451;DHT22;2238;50.180;9.230;2022-10-01T15:41:38;16.00;99.90
4451;DHT22;2238;50.180;9.230;2022-10-01T15:44:47;15.50;99.90
4451;DHT22;2238;50.180;9.230;2022-10-01T15:47:49;16.60;99.90
4451;DHT22;2238;50.180;9.230;2022-10-01T15:51:00;14.20;99.90
4451;DHT22;2238;50.180;9.230;2022-10-01T15:54:06;14.20;99.90
4451;DHT22;2238;50.180;9.230;2022-10-01T15:57:16;14.20;99.90
4451;DHT22;2238;50.180;9.230;2022-10-01T16:00:23;14.30;99.90
4451;DHT22;2238;50.180;9.230;2022-10-01T16:03:31;14.20;99.90
4451;DHT22;2238;50.180;9.230;2022-10-01T16:06:39;14.20;99.90
4451;DHT22;2238;50.180;9.230;2022-10-01T16:09:50;14.10;99.90
4451;DHT22;2238;50.180;9.230;2022-10-01T16:12:51;14.10;99.90
4451;DHT22;2238;50.180;9.230;2022-10-01T16:16:19;13.90;99.90
4451;DHT22;2238;50.180;9.230;2022-10-01T16:19:27;13.90;99.90
4451;DHT22;2238;50.180;9.230;2022-10-01T16:22:41;16.20;99.90
4451;DHT22;2238;50.180;9.230;2022-10-01T16:25:43;13.80;99.90
4451;DHT22;2238;50.180;9.230;2022-10-01T16:28:44;13.80;99.90
4451;DHT22;2238;50.180;9.230;2022-10-01T16:31:46;13.80;99.90
4451;DHT22;2238;50.180;9.230;2022-10-01T16:34:46;13.90;99.90
4451;DHT22;2238;50.180;9.230;2022-10-01T16:37:48;16.20;99.90
4451;DHT22;2238;50.180;9.230;2022-10-01T16:40:49;14.80;99.90
4451;DHT22;2238;50.180;9.230;2022-10-01T16:43:51;13.70;99.90
4451;DHT22;2238;50.180;9.230;2022-10-01T16:46:53;14.80;99.90
4451;DHT22;2238;50.180;9.230;2022-10-01T16:49:55;13.50;99.90
4451;DHT22;2238;50.180;9.230;2022-10-01T16:52:56;13.50;99.90
4451;DHT22;2238;50.180;9.230;2022-10-01T16:56:00;15.50;99.90
4451;DHT22;2238;50.180;9.230;2022-10-01T16:59:02;13.20;99.90
4451;DHT22;2238;50.180;9.230;2022-10-01T17:02:03;13.20;99.90
4451;DHT22;2238;50.180;9.230;2022-10-01T17:05:04;14.60;99.90
4451;DHT22;2238;50.180;9.230;2022-10-01T17:08:05;13.30;99.90
4451;DHT22;2238;50.180;9.230;2022-10-01T17:11:11;13.70;99.90
4451;DHT22;2238;50.180;9.230;2022-10-01T17:14:16;13.50;99.90
4451;DHT22;2238;50.180;9.230;2022-10-01T17:17:17;15.10;99.90
4451;DHT22;2238;50.180;9.230;2022-10-01T17:20:18;15.70;99.90
4451;DHT22;2238;50.180;9.230;2022-10-01T17:23:19;15.60;99.90
4451;DHT22;2238;50.180;9.230;2022-10-01T17:26:27;15.20;99.90
4451;DHT22;2238;50.180;9.230;2022-10-01T17:29:28;13.50;99.90
4451;DHT22;2238;50.180;9.230;2022-10-01T17:32:31;16.00;99.90
4451;DHT22;2238;50.180;9.230;2022-10-01T17:35:33;14.30;99.90
4451;DHT22;2238;50.180;9.230;2022-10-01T17:38:34;16.00;99.90
4451;DHT22;2238;50.180;9.230;2022-10-01T17:41:35;13.30;99.90
4451;DHT22;2238;50.180;9.230;2022-10-01T17:44:36;13.40;99.90
4451;DHT22;2238;50.180;9.230;2022-10-01T17:47:44;13.40;99.90
4451;DHT22;2238;50.180;9.230;2022-10-01T17:50:45;13.30;99.90
4451;DHT22;2238;50.180;9.230;2022-10-01T17:53:46;15.00;99.90
4451;DHT22;2238;50.180;9.230;2022-10-01T17:56:50;13.20;99.90
4451;DHT22;2238;50.180;9.230;2022-10-01T17:59:51;13.30;99.90
4451;DHT22;2238;50.180;9.230;2022-10-01T18:02:51;16.00;99.90
4451;DHT22;2238;50.180;9.230;2022-10-01T18:06:00;14.30;99.90
4451;DHT22;2238;50.180;9.230;2022-10-01T18:09:02;13.30;99.90
4451;DHT22;2238;50.180;9.230;2022-10-01T18:12:03;13.30;99.90
4451;DHT22;2238;50.180;9.230;2022-10-01T18:15:04;14.50;99.90
4451;DHT22;2238;50.180;9.230;2022-10-01T18:18:05;13.30;99.90
4451;DHT22;2238;50.180;9.230;2022-10-01T18:21:09;15.50;99.90
4451;DHT22;2238;50.180;9.230;2022-10-01T18:24:10;14.10;99.90
4451;DHT22;2238;50.180;9.230;2022-10-01T18:27:11;14.50;99.90
4451;DHT22;2238;50.180;9.230;2022-10-01T18:30:12;13.30;99.90
4451;DHT22;2238;50.180;9.230;2022-10-01T18:33:14;13.20;99.90
4451;DHT22;2238;50.180;9.230;2022-10-01T18:36:35;14.50;99.90
4451;DHT22;2238;50.180;9.230;2022-10-01T18:40:09;13.20;99.90
4451;DHT22;2238;50.180;9.230;2022-10-01T18:43:19;13.30;99.90
4451;DHT22;2238;50.180;9.230;2022-10-01T18:47:26;13.30;99.90
4451;DHT22;2238;50.180;9.230;2022-10-01T18:50:26;13.20;99.90
4451;DHT22;2238;50.180;9.230;2022-10-01T19:04:48;13.10;99.90
4451;DHT22;2238;50.180;9.230;2022-10-01T19:14:41;13.20;99.90
4451;DHT22;2238;50.180;9.230;2022-10-01T19:24:35;13.30;99.90
4451;DHT22;2238;50.180;9.230;2022-10-01T19:31:27;13.00;99.90
4451;DHT22;2238;50.180;9.230;2022-10-01T19:41:29;13.10;99.90
4451;DHT22;2238;50.180;9.230;2022-10-01T19:44:41;13.10;99.90
4451;DHT22;2238;50.180;9.230;2022-10-01T19:48:00;13.80;99.90
4451;DHT22;2238;50.180;9.230;2022-10-01T19:51:08;12.90;99.90
4451;DHT22;2238;50.180;9.230;2022-10-01T19:54:18;12.80;99.90
4451;DHT22;2238;50.180;9.230;2022-10-01T19:57:28;12.80;99.90
4451;DHT22;2238;50.180;9.230;2022-10-01T20:00:32;12.80;99.90
4451;DHT22;2238;50.180;9.230;2022-10-01T20:03:39;12.70;99.90
4451;DHT22;2238;50.180;9.230;2022-10-01T20:06:44;12.70;99.90
4451;DHT22;2238;50.180;9.230;2022-10-01T20:16:45;12.60;99.90
4451;DHT22;2238;50.180;9.230;2022-10-01T20:20:25;12.50;99.90
4451;DHT22;2238;50.180;9.230;2022-10-01T20:26:46;12.30;99.90
4451;DHT22;2238;50.180;9.230;2022-10-01T20:29:59;12.40;99.90
4451;DHT22;2238;50.180;9.230;2022-10-01T20:33:08;12.60;99.90
4451;DHT22;2238;50.180;9.230;2022-10-01T20:36:49;12.70;99.90
4451;DHT22;2238;50.180;9.230;2022-10-01T20:39:56;12.70;99.90
4451;DHT22;2238;50.180;9.230;2022-10-01T20:49:50;12.70;99.90
4451;DHT22;2238;50.180;9.230;2022-10-01T20:53:18;12.70;99.90
4451;DHT22;2238;50.180;9.230;2022-10-01T20:56:29;11.80;99.90
4451;DHT22;2238;50.180;9.230;2022-10-01T20:59:39;12.60;99.90
4451;DHT22;2238;50.180;9.230;2022-10-01T21:06:04;12.60;99.90
4451;DHT22;2238;50.180;9.230;2022-10-01T21:09:14;12.60;99.90
4451;DHT22;2238;50.180;9.230;2022-10-01T21:12:21;12.60;99.90
4451;DHT22;2238;50.180;9.230;2022-10-01T21:15:27;13.80;99.90
4451;DHT22;2238;50.180;9.230;2022-10-01T21:18:51;13.70;99.90
4451;DHT22;2238;50.180;9.230;2022-10-01T21:22:14;12.50;99.90
4451;DHT22;2238;50.180;9.230;2022-10-01T21:32:19;12.40;99.90
4451;DHT22;2238;50.180;9.230;2022-10-01T21:35:51;12.30;99.90
4451;DHT22;2238;50.180;9.230;2022-10-01T21:42:47;12.50;99.90
4451;DHT22;2238;50.180;9.230;2022-10-01T21:46:18;12.50;99.90
4451;DHT22;2238;50.180;9.230;2022-10-01T22:03:15;12.20;99.90
4451;DHT22;2238;50.180;9.230;2022-10-01T22:10:18;12.40;99.90
4451;DHT22;2238;50.180;9.230;2022-10-01T22:13:26;12.30;99.90
4451;DHT22;2238;50.180;9.230;2022-10-01T22:16:38;12.50;99.90
4451;DHT22;2238;50.180;9.230;2022-10-01T22:19:44;12.30;99.90
4451;DHT22;2238;50.180;9.230;2022-10-01T22:22:50;12.30;99.90
4451;DHT22;2238;50.180;9.230;2022-10-01T22:25:56;13.70;99.90
4451;DHT22;2238;50.180;9.230;2022-10-01T22:28:58;15.10;99.90
4451;DHT22;2238;50.180;9.230;2022-10-01T22:32:02;12.30;99.90
4451;DHT22;2238;50.180;9.230;2022-10-01T22:35:08;12.40;99.90
4451;DHT22;2238;50.180;9.230;2022-10-01T22:38:32;12.40;99.90
4451;DHT22;2238;50.180;9.230;2022-10-01T22:41:43;12.40;99.90
4451;DHT22;2238;50.180;9.230;2022-10-01T22:44:44;14.50;99.90
4451;DHT22;2238;50.180;9.230;2022-10-01T22:51:23;12.30;99.90
4451;DHT22;2238;50.180;9.230;2022-10-01T22:58:11;12.30;99.90
4451;DHT22;2238;50.180;9.230;2022-10-01T23:01:32;12.20;99.90
4451;DHT22;2238;50.180;9.230;2022-10-01T23:08:23;12.30;99.90
4451;DHT22;2238;50.180;9.230;2022-10-01T23:15:16;12.30;99.90
4451;DHT22;2238;50.180;9.230;2022-10-01T23:18:43;12.30;99.90
4451;DHT22;2238;50.180;9.230;2022-10-01T23:25:29;12.30;99.90
4451;DHT22;2238;50.180;9.230;2022-10-01T23:32:01;12.40;99.90
4451;DHT22;2238;50.180;9.230;2022-10-01T23:35:12;12.40;99.90
4451;DHT22;2238;50.180;9.230;2022-10-01T23:41:42;12.50;99.90
4451;DHT22;2238;50.180;9.230;2022-10-01T23:45:03;12.40;99.90
4451;DHT22;2238;50.180;9.230;2022-10-01T23:48:15;12.40;99.90
4451;DHT22;2238;50.180;9.230;2022-10-01T23:51:24;13.00;99.90
4451;DHT22;2238;50.180;9.230;2022-10-01T23:54:35;12.50;99.90
4451;DHT22;2238;50.180;9.230;2022-10-01T23:57:38;12.50;99.90
